Andale, Kansas
Current Conditions -  °F | °C
As of 7:49 AM on Monday 22 Dec 2014 (Local Time) from KICT Reporting Station
Light Rain Light Rain  
Wind Chill:   Ceiling: 300
Heat Index:   Visibility: 1mi
Dew Point:   Wind: 3mph
Humidity: 93%   Direction: 170°S
Pressure: 29.56"   Gusts: NA
Location:  37.79°N, 97.63°W
Report Text: KICT 221349Z 17003KT 1SM R01L/P6000FT -RA BR OVC003 07/06 A2956 RMK AO2 SFC VIS 2 DZE08RAB48 SLP010 P0000 T00720061 $
Loading
Personal Weather Stations






























Interactive Weather Map New forecast layout! Learn more

10-Day Weather Forecast

Advertisements
Track Severe Weather on mobile